createdAt,value
2018-08-09T00:01:31.295Z,15.90
2018-08-09T00:03:59.981Z,14.37
2018-08-09T00:06:28.891Z,26.62
2018-08-09T00:08:57.855Z,17.07
2018-08-09T00:11:27.760Z,19.57
2018-08-09T00:13:56.681Z,14.80
2018-08-09T00:16:25.340Z,16.10
2018-08-09T00:18:54.131Z,15.80
2018-08-09T00:21:22.912Z,9.67
2018-08-09T00:23:51.581Z,17.10
2018-08-09T00:26:20.489Z,18.10
2018-08-09T00:28:49.104Z,12.33
2018-08-09T00:31:18.434Z,10.43
2018-08-09T00:33:47.514Z,12.33
2018-08-09T00:36:16.264Z,14.00
2018-08-09T00:38:44.999Z,14.50
2018-08-09T00:41:13.916Z,15.73
2018-08-09T00:43:42.714Z,10.03
2018-08-09T00:46:11.751Z,18.23
2018-08-09T00:48:40.780Z,12.50
2018-08-09T00:51:10.319Z,15.50
2018-08-09T00:53:39.231Z,14.93
2018-08-09T00:56:07.919Z,18.00
2018-08-09T00:58:36.750Z,17.83
2018-08-09T01:01:06.009Z,14.90
2018-08-09T01:03:34.782Z,12.40
2018-08-09T01:06:03.462Z,12.23
2018-08-09T01:08:32.737Z,12.90
2018-08-09T01:11:01.892Z,13.30
2018-08-09T01:13:30.689Z,10.10
2018-08-09T01:15:59.320Z,12.57
2018-08-09T01:18:28.901Z,17.23
2018-08-09T01:20:57.825Z,19.40
2018-08-09T01:23:27.101Z,13.40
2018-08-09T01:25:55.922Z,12.83
2018-08-09T01:28:25.227Z,12.10
2018-08-09T01:30:54.007Z,14.27
2018-08-09T01:33:23.010Z,18.82
2018-08-09T01:35:51.858Z,9.23
2018-08-09T01:38:20.711Z,15.50
2018-08-09T01:40:50.541Z,13.03
2018-08-09T01:43:30.476Z,10.73
2018-08-09T01:45:59.706Z,17.57
2018-08-09T01:48:29.040Z,18.20
2018-08-09T01:50:58.396Z,13.70
2018-08-09T01:53:27.142Z,8.60
2018-08-09T01:55:55.731Z,14.67
2018-08-09T01:58:24.320Z,16.87
2018-08-09T02:00:53.123Z,17.17
2018-08-09T02:03:22.352Z,16.93
2018-08-09T02:05:51.215Z,11.43
2018-08-09T02:08:19.881Z,17.27
2018-08-09T02:10:48.975Z,14.73
2018-08-09T02:13:17.722Z,16.83
2018-08-09T02:15:46.495Z,21.10
2018-08-09T02:18:15.410Z,16.63
2018-08-09T02:20:44.916Z,13.27
2018-08-09T02:23:14.304Z,14.03
2018-08-09T02:25:43.075Z,14.57
2018-08-09T02:28:12.606Z,23.80
2018-08-09T02:30:41.951Z,12.87
2018-08-09T02:33:11.058Z,13.53
2018-08-09T02:35:39.696Z,13.57
2018-08-09T02:38:08.341Z,19.17
2018-08-09T02:40:37.115Z,10.75
2018-08-09T02:43:06.042Z,19.37
2018-08-09T02:45:34.791Z,10.93
2018-08-09T02:48:03.455Z,16.55
2018-08-09T02:50:32.250Z,21.90
2018-08-09T02:53:00.972Z,22.60
2018-08-09T02:55:30.446Z,11.77
2018-08-09T02:57:59.312Z,19.73
2018-08-09T03:00:28.037Z,14.67
2018-08-09T03:02:56.817Z,19.43
2018-08-09T03:05:26.191Z,17.23
2018-08-09T03:07:55.003Z,16.90
2018-08-09T03:10:23.671Z,11.63
2018-08-09T03:12:52.420Z,16.40
2018-08-09T03:15:22.050Z,12.93
2018-08-09T03:17:50.662Z,20.03
2018-08-09T03:20:19.431Z,12.70
2018-08-09T03:22:49.265Z,15.73
2018-08-09T03:25:17.922Z,13.63
2018-08-09T03:27:47.235Z,13.00
2018-08-09T03:30:16.313Z,13.33
2018-08-09T03:32:45.130Z,15.87
2018-08-09T03:35:13.788Z,11.60
2018-08-09T03:37:43.241Z,12.87
2018-08-09T03:40:11.941Z,12.63
2018-08-09T03:42:41.431Z,13.60
2018-08-09T03:45:10.270Z,17.67
2018-08-09T03:47:38.871Z,10.10
2018-08-09T03:50:08.190Z,11.63
2018-08-09T03:52:36.901Z,19.47
2018-08-09T03:55:06.643Z,11.00
2018-08-09T03:57:35.460Z,20.37
2018-08-09T04:00:05.201Z,13.93
2018-08-09T04:02:33.950Z,11.53
2018-08-09T04:05:03.415Z,14.83
2018-08-09T04:07:32.858Z,10.73
2018-08-09T04:10:01.412Z,16.93
2018-08-09T04:12:30.471Z,15.27
2018-08-09T04:14:59.097Z,13.03
2018-08-09T04:17:27.703Z,14.10
2018-08-09T04:19:56.611Z,17.00
2018-08-09T04:22:26.093Z,14.03
2018-08-09T04:24:55.051Z,17.20
2018-08-09T04:27:23.696Z,18.47
2018-08-09T04:29:52.510Z,13.10
2018-08-09T04:32:22.176Z,16.00
2018-08-09T04:34:51.313Z,12.30
2018-08-09T04:37:19.932Z,14.87
2018-08-09T04:39:48.657Z,13.33
2018-08-09T04:42:18.020Z,10.33
2018-08-09T04:44:46.595Z,17.80
2018-08-09T04:47:15.405Z,16.70
2018-08-09T04:49:44.087Z,17.60
2018-08-09T04:52:12.872Z,19.40
2018-08-09T04:54:42.181Z,21.63
2018-08-09T04:57:11.272Z,17.53
2018-08-09T04:59:39.967Z,10.20
2018-08-09T05:02:08.812Z,19.33
2018-08-09T05:04:37.920Z,16.00
2018-08-09T05:07:07.254Z,31.13
2018-08-09T05:09:36.710Z,15.57
2018-08-09T05:12:05.398Z,13.40
2018-08-09T05:14:34.550Z,13.67
2018-08-09T05:17:04.081Z,13.43
2018-08-09T05:19:32.971Z,21.87
2018-08-09T05:22:01.606Z,13.20
2018-08-09T05:24:30.691Z,16.23
2018-08-09T05:26:59.747Z,17.00
2018-08-09T05:29:28.456Z,11.63
2018-08-09T05:31:57.209Z,12.20
2018-08-09T05:34:25.873Z,14.43
2018-08-09T05:36:54.597Z,22.23
2018-08-09T05:39:23.267Z,23.90
2018-08-09T05:41:52.676Z,14.50
2018-08-09T05:44:21.685Z,11.33
2018-08-09T05:46:51.025Z,14.40
2018-08-09T05:49:19.716Z,13.77
2018-08-09T05:51:48.392Z,16.20
2018-08-09T05:54:17.297Z,33.90
2018-08-09T05:56:46.124Z,29.70
2018-08-09T05:59:15.456Z,17.27
2018-08-09T06:01:44.058Z,16.87
2018-08-09T06:04:12.721Z,23.47
2018-08-09T06:06:41.821Z,15.57
2018-08-09T06:09:11.940Z,14.37
2018-08-09T06:11:40.692Z,16.63
2018-08-09T06:14:10.311Z,12.90
2018-08-09T06:16:39.527Z,11.03
2018-08-09T06:19:08.976Z,23.35
2018-08-09T06:21:38.122Z,14.20
2018-08-09T06:24:07.240Z,14.30
2018-08-09T06:26:36.656Z,12.67
2018-08-09T06:29:05.416Z,18.27
2018-08-09T06:31:34.992Z,20.60
2018-08-09T06:34:03.999Z,25.50
2018-08-09T06:36:32.625Z,18.43
2018-08-09T06:39:01.603Z,13.27
2018-08-09T06:41:30.489Z,18.30
2018-08-09T06:43:59.256Z,13.00
2018-08-09T06:46:28.304Z,11.80
2018-08-09T06:48:57.136Z,9.40
2018-08-09T06:51:25.802Z,15.57
2018-08-09T06:53:54.435Z,11.30
2018-08-09T06:56:23.382Z,13.63
2018-08-09T06:58:52.600Z,14.03
2018-08-09T07:01:21.366Z,10.63
2018-08-09T07:03:50.956Z,19.03
2018-08-09T07:06:19.682Z,10.40
2018-08-09T07:08:48.460Z,11.00
2018-08-09T07:11:17.072Z,7.97
2018-08-09T07:13:45.877Z,11.35
2018-08-09T07:16:15.123Z,8.87
2018-08-09T07:18:43.706Z,12.20
2018-08-09T07:21:12.510Z,7.55
2018-08-09T07:23:41.865Z,11.25
2018-08-09T07:26:10.877Z,8.60
2018-08-09T07:28:39.818Z,8.53
2018-08-09T07:31:08.587Z,7.55
2018-08-09T07:33:37.496Z,10.60
2018-08-09T07:36:06.716Z,7.05
2018-08-09T07:38:35.816Z,12.58
2018-08-09T07:41:05.552Z,5.55
2018-08-09T07:43:34.723Z,9.25
2018-08-09T07:46:04.037Z,6.53
2018-08-09T07:48:33.272Z,18.60
2018-08-09T07:51:02.477Z,10.40
2018-08-09T07:53:31.747Z,10.43
2018-08-09T07:56:00.911Z,9.40
2018-08-09T07:58:29.868Z,6.97
2018-08-09T08:00:59.394Z,5.65
2018-08-09T08:03:28.372Z,8.80
2018-08-09T08:05:57.743Z,11.57
2018-08-09T08:08:26.880Z,6.75
2018-08-09T08:10:56.048Z,6.15
2018-08-09T08:13:25.388Z,12.37
2018-08-09T08:15:54.547Z,6.60
2018-08-09T08:18:23.947Z,10.83
2018-08-09T08:20:53.159Z,5.72
2018-08-09T08:23:22.172Z,5.64
2018-08-09T08:25:51.548Z,6.10
2018-08-09T08:28:21.868Z,6.72
2018-08-09T08:30:50.813Z,3.40
2018-08-09T08:33:20.092Z,5.42
2018-08-09T08:35:49.237Z,4.80
2018-08-09T08:38:18.584Z,6.60
2018-08-09T08:40:47.772Z,5.43
2018-08-09T08:43:17.826Z,7.70
2018-08-09T08:45:47.038Z,15.23
2018-08-09T08:48:16.296Z,4.87
2018-08-09T08:50:45.652Z,3.80
2018-08-09T08:53:15.183Z,3.95
2018-08-09T08:55:44.013Z,4.70
2018-08-09T08:58:12.862Z,6.03
2018-08-09T09:00:41.537Z,4.77
2018-08-09T09:03:10.646Z,4.17
2018-08-09T09:05:39.606Z,5.28
2018-08-09T09:08:08.493Z,2.92
2018-08-09T09:10:37.428Z,5.05
2018-08-09T09:13:06.733Z,4.80
2018-08-09T09:15:35.742Z,4.33
2018-08-09T09:18:04.708Z,4.75
2018-08-09T09:20:33.529Z,2.60
2018-08-09T09:23:02.532Z,4.12
2018-08-09T09:30:27.259Z,2.30
2018-08-09T09:32:56.284Z,3.30
2018-08-09T09:35:25.349Z,1.90
2018-08-09T09:37:54.258Z,6.15
2018-08-09T09:40:24.602Z,3.45
2018-08-09T09:42:53.417Z,3.90
2018-08-09T09:45:22.195Z,3.20
2018-08-09T09:47:51.729Z,6.70
2018-08-09T09:50:20.543Z,5.80
2018-08-09T09:52:50.246Z,3.10
2018-08-09T09:55:19.480Z,7.10
2018-08-09T10:05:18.889Z,2.50
2018-08-09T10:12:44.033Z,6.90
2018-08-09T10:17:41.419Z,2.05
2018-08-09T10:22:38.570Z,2.62
2018-08-09T10:25:07.805Z,2.13
2018-08-09T10:27:36.704Z,1.52
2018-08-09T10:30:06.637Z,1.92
2018-08-09T10:32:35.503Z,6.35
2018-08-09T10:35:04.363Z,1.93
2018-08-09T10:37:33.523Z,2.00
2018-08-09T10:40:02.549Z,3.20
2018-08-09T10:42:31.359Z,2.83
2018-08-09T10:45:01.001Z,1.72
2018-08-09T10:47:30.046Z,1.82
2018-08-09T10:49:58.972Z,2.37
2018-08-09T10:52:27.698Z,2.20
2018-08-09T10:54:56.508Z,3.00
2018-08-09T10:57:26.153Z,2.37
2018-08-09T10:59:55.362Z,2.60
2018-08-09T11:02:24.563Z,2.60
2018-08-09T11:12:17.144Z,4.05
2018-08-09T11:19:41.524Z,3.40
2018-08-09T11:39:26.959Z,3.40
2018-08-09T11:41:55.554Z,3.07
2018-08-09T11:44:24.601Z,8.15
2018-08-09T11:46:53.497Z,3.22
2018-08-09T11:49:22.261Z,5.22
2018-08-09T11:51:51.342Z,4.07
2018-08-09T11:54:20.591Z,3.27
2018-08-09T11:56:49.849Z,4.67
2018-08-09T11:59:18.740Z,3.55
2018-08-09T12:01:48.379Z,5.25
2018-08-09T12:04:17.142Z,3.43
2018-08-09T12:06:46.005Z,6.22
2018-08-09T12:09:14.661Z,4.67
2018-08-09T12:11:44.219Z,3.98
2018-08-09T12:14:14.059Z,7.53
2018-08-09T12:16:42.859Z,6.03
2018-08-09T12:19:11.781Z,4.70
2018-08-09T12:21:40.706Z,5.20
2018-08-09T12:24:10.327Z,3.00
2018-08-09T12:26:39.547Z,4.13
2018-08-09T12:29:08.455Z,6.50
2018-08-09T12:31:37.102Z,4.40
2018-08-09T12:34:06.284Z,6.63
2018-08-09T12:36:35.680Z,10.60
2018-08-09T12:39:06.761Z,3.73
2018-08-09T12:41:35.487Z,3.00
2018-08-09T12:44:04.479Z,3.30
2018-08-09T13:08:46.505Z,9.77
2018-08-09T13:11:21.279Z,5.43
2018-08-09T13:13:52.004Z,5.13
2018-08-09T13:16:20.795Z,4.47
2018-08-09T13:18:49.632Z,4.00
2018-08-09T13:21:18.532Z,3.57
2018-08-09T13:23:47.621Z,6.13
2018-08-09T13:26:16.278Z,4.23
2018-08-09T13:28:45.259Z,4.00
2018-08-09T13:31:14.414Z,7.87
2018-08-09T13:33:43.265Z,8.30
2018-08-09T13:38:40.245Z,18.80
2018-08-09T13:41:09.313Z,39.15
2018-08-09T13:43:38.843Z,30.00
2018-08-09T13:46:07.819Z,20.30
2018-08-09T13:51:04.869Z,12.30
2018-08-09T13:53:34.435Z,24.70
2018-08-09T13:56:03.560Z,8.00
2018-08-09T13:58:32.618Z,15.83
2018-08-09T14:01:01.561Z,9.80
2018-08-09T14:03:30.530Z,10.03
2018-08-09T14:05:59.265Z,14.80
2018-08-09T14:08:28.718Z,8.03
2018-08-09T14:10:57.489Z,8.90
2018-08-09T14:13:26.414Z,9.77
2018-08-09T14:15:55.783Z,9.80
2018-08-09T14:18:24.645Z,6.40
2018-08-09T14:20:53.763Z,11.93
2018-08-09T14:23:22.655Z,11.63
2018-08-09T14:25:51.480Z,7.27
2018-08-09T14:28:20.361Z,10.90
2018-08-09T14:30:49.949Z,5.70
2018-08-09T14:33:18.713Z,16.50
2018-08-09T14:35:47.360Z,11.83
2018-08-09T14:38:17.526Z,10.37
2018-08-09T14:40:46.673Z,6.50
2018-08-09T14:43:15.449Z,6.37
2018-08-09T14:45:44.291Z,9.83
2018-08-09T14:48:13.091Z,3.57
2018-08-09T14:50:41.854Z,2.85
2018-08-09T14:53:10.609Z,10.43
2018-08-09T14:55:40.188Z,6.58
2018-08-09T14:58:09.383Z,6.20
2018-08-09T15:00:38.163Z,3.20
2018-08-09T15:03:06.947Z,5.30
2018-08-09T15:05:36.176Z,3.00
2018-08-09T15:08:05.236Z,10.05
2018-08-09T15:10:34.527Z,3.05
2018-08-09T15:15:32.230Z,2.30
2018-08-09T15:18:01.251Z,3.20
2018-08-09T15:20:30.279Z,8.20
2018-08-09T15:22:59.329Z,3.23
2018-08-09T15:25:28.132Z,3.00
2018-08-09T15:27:57.049Z,8.10
2018-08-09T15:30:26.270Z,4.80
2018-08-09T15:32:55.541Z,6.20
2018-08-09T15:35:24.274Z,4.10
2018-08-09T15:37:53.083Z,5.30
2018-08-09T15:40:22.534Z,5.35
2018-08-09T15:52:45.610Z,3.20
2018-08-09T15:57:42.800Z,5.70
2018-08-09T16:10:11.118Z,5.90
2018-08-09T16:12:40.360Z,14.30
2018-08-09T16:15:11.340Z,7.15
2018-08-09T16:17:40.171Z,7.50
2018-08-09T16:20:10.258Z,7.70
2018-08-09T16:22:39.111Z,5.20
2018-08-09T16:25:16.121Z,6.70
2018-08-09T16:27:45.514Z,4.10
2018-08-09T16:32:45.768Z,5.00
2018-08-09T16:35:14.841Z,5.80
2018-08-09T16:37:44.714Z,9.67
2018-08-09T16:40:16.249Z,9.85
2018-08-09T16:42:45.044Z,5.87
2018-08-09T16:45:15.874Z,2.70
2018-08-09T16:47:44.950Z,7.45
2018-08-09T16:50:17.010Z,10.60
2018-08-09T16:52:47.472Z,5.20
2018-08-09T16:55:17.030Z,2.40
2018-08-09T16:57:46.037Z,5.00
2018-08-09T17:02:44.114Z,7.00
2018-08-09T17:05:16.671Z,6.57
2018-08-09T17:07:45.553Z,9.65
2018-08-09T17:12:43.061Z,11.90
2018-08-09T17:15:16.742Z,4.50
2018-08-09T17:35:07.869Z,10.95
2018-08-09T17:37:36.937Z,3.13
2018-08-09T17:40:08.304Z,6.13
2018-08-09T17:42:38.644Z,5.23
2018-08-09T17:45:08.779Z,10.67
2018-08-09T17:47:37.924Z,12.33
2018-08-09T17:50:07.369Z,12.17
2018-08-09T17:52:37.386Z,5.93
2018-08-09T17:55:09.079Z,7.13
2018-08-09T17:57:39.095Z,6.33
2018-08-09T18:00:10.904Z,7.90
2018-08-09T18:02:40.242Z,7.20
2018-08-09T18:05:09.891Z,6.10
2018-08-09T18:07:38.750Z,5.93
2018-08-09T18:10:13.530Z,11.67
2018-08-09T18:12:43.044Z,6.50
2018-08-09T18:15:12.096Z,13.57
2018-08-09T18:17:41.284Z,7.30
2018-08-09T18:20:12.734Z,6.33
2018-08-09T18:22:41.890Z,4.20
2018-08-09T18:25:11.967Z,4.40
2018-08-09T18:27:41.092Z,15.43
2018-08-09T18:30:13.554Z,9.20
2018-08-09T18:32:42.739Z,8.83
2018-08-09T18:35:13.185Z,9.83
2018-08-09T18:37:43.105Z,6.20
2018-08-09T18:40:16.066Z,12.77
2018-08-09T18:42:45.012Z,5.50
2018-08-09T18:45:14.546Z,7.67
2018-08-09T18:47:44.082Z,6.80
2018-08-09T18:50:15.749Z,4.47
2018-08-09T18:52:46.296Z,5.20
2018-08-09T18:55:16.531Z,3.07
2018-08-09T18:57:46.591Z,6.50
2018-08-09T19:00:25.706Z,5.37
2018-08-09T19:02:56.212Z,16.13
2018-08-09T19:05:25.280Z,5.92
2018-08-09T19:07:54.074Z,4.67
2018-08-09T19:10:26.890Z,8.73
2018-08-09T19:12:56.680Z,14.30
2018-08-09T19:15:26.163Z,3.80
2018-08-09T19:17:55.845Z,7.03
2018-08-09T19:20:31.250Z,5.87
2018-08-09T19:23:00.725Z,7.30
2018-08-09T19:25:29.713Z,5.33
2018-08-09T19:27:58.649Z,12.33
2018-08-09T19:30:28.750Z,13.07
2018-08-09T19:32:57.948Z,3.47
2018-08-09T19:35:27.159Z,5.70
2018-08-09T19:37:56.003Z,4.97
2018-08-09T19:40:27.830Z,11.33
2018-08-09T19:42:56.849Z,4.63
2018-08-09T19:45:25.921Z,8.17
2018-08-09T19:47:54.942Z,4.07
2018-08-09T19:50:24.520Z,4.77
2018-08-09T19:52:53.579Z,3.80
2018-08-09T19:55:25.400Z,10.47
2018-08-09T19:57:55.477Z,6.93
2018-08-09T20:00:29.501Z,5.07
2018-08-09T20:02:58.822Z,4.53
2018-08-09T20:05:28.611Z,5.60
2018-08-09T20:07:58.075Z,5.30
2018-08-09T20:10:27.881Z,9.63
2018-08-09T20:12:58.099Z,4.70
2018-08-09T20:15:27.462Z,5.33
2018-08-09T20:17:56.686Z,3.67
2018-08-09T20:20:26.330Z,4.93
2018-08-09T20:22:56.448Z,3.53
2018-08-09T20:25:25.331Z,6.83
2018-08-09T20:27:54.744Z,7.03
2018-08-09T20:30:23.741Z,4.37
2018-08-09T20:32:52.898Z,5.33
2018-08-09T20:35:24.116Z,6.80
2018-08-09T20:37:53.590Z,6.73
2018-08-09T20:40:23.548Z,10.20
2018-08-09T20:42:54.260Z,4.23
2018-08-09T20:45:23.940Z,4.40
2018-08-09T20:47:53.128Z,6.73
2018-08-09T20:50:25.366Z,4.90
2018-08-09T20:52:54.624Z,8.80
2018-08-09T20:55:23.441Z,7.77
2018-08-09T20:57:52.895Z,8.60
2018-08-09T21:00:23.972Z,5.15
2018-08-09T21:02:55.260Z,8.43
2018-08-09T21:05:25.781Z,7.00
2018-08-09T21:07:55.443Z,13.00
2018-08-09T21:10:24.511Z,10.23
2018-08-09T21:12:53.435Z,5.60
2018-08-09T21:15:22.333Z,3.17
2018-08-09T21:17:51.128Z,4.67
2018-08-09T21:20:20.015Z,10.13
2018-08-09T21:22:49.881Z,4.00
2018-08-09T21:25:19.168Z,6.70
2018-08-09T21:27:48.586Z,6.07
2018-08-09T21:30:19.896Z,4.70
2018-08-09T21:32:49.166Z,8.13
2018-08-09T21:35:18.072Z,3.93
2018-08-09T21:37:47.338Z,9.60
2018-08-09T21:40:16.537Z,4.50
2018-08-09T21:42:45.332Z,7.40
2018-08-09T21:45:16.033Z,10.13
2018-08-09T21:47:45.152Z,5.33
2018-08-09T21:50:16.593Z,4.27
2018-08-09T21:52:45.588Z,4.20
2018-08-09T21:55:14.993Z,8.50
2018-08-09T21:57:44.891Z,3.73
2018-08-09T22:00:57.670Z,10.33
2018-08-09T22:03:28.685Z,8.70
2018-08-09T22:06:02.543Z,5.13
2018-08-09T22:08:36.751Z,4.97
2018-08-09T22:12:13.910Z,19.67
2018-08-09T22:14:47.957Z,4.83
2018-08-09T22:17:22.108Z,5.87
2018-08-09T22:20:57.316Z,3.90
2018-08-09T22:23:25.896Z,8.33
2018-08-09T22:25:54.665Z,8.23
2018-08-09T22:28:23.322Z,6.10
2018-08-09T22:33:20.297Z,4.80
2018-08-09T22:38:17.128Z,6.30
2018-08-09T22:40:45.916Z,5.00
2018-08-09T22:43:14.831Z,5.77
2018-08-09T22:45:44.392Z,3.30
2018-08-09T22:48:13.256Z,5.55
2018-08-09T22:50:42.145Z,5.00
2018-08-09T22:53:10.741Z,3.27
2018-08-09T22:55:40.110Z,7.30
2018-08-09T22:58:09.175Z,3.70
2018-08-09T23:00:38.087Z,6.53
2018-08-09T23:03:09.966Z,3.10
2018-08-09T23:15:31.815Z,5.00
2018-08-09T23:20:29.113Z,3.60
2018-08-09T23:25:26.042Z,6.80
2018-08-09T23:27:54.851Z,3.95
2018-08-09T23:30:24.753Z,5.83
2018-08-09T23:32:54.150Z,7.60
2018-08-09T23:35:22.808Z,8.50
2018-08-09T23:37:51.791Z,4.70
2018-08-09T23:40:20.455Z,4.33
2018-08-09T23:42:49.336Z,6.58
2018-08-09T23:45:18.447Z,3.50
2018-08-09T23:47:47.811Z,3.47
2018-08-09T23:50:17.071Z,5.47
2018-08-09T23:52:45.785Z,3.70
2018-08-09T23:55:16.315Z,4.35
2018-08-09T23:57:45.226Z,5.87
